Time;durP1;ratioP1;P1;durP2;ratioP2;P2;SDS_P1;SDS_P2;PMS_P1;PMS_P2;Temp;Humidity;BMP_temperature;BMP_pressure;BME280_temperature;BME280_humidity;BME280_pressure;Samples;Min_cycle;Max_cycle;Signal;HPM_P1;HPM_P2
2023/07/04 00:00:48;;;;;;;7.20;4.90;;;;;;;18.39;100.00;97440.56;5134273;27;20027;-75
2023/07/04 00:03:14;;;;;;;7.45;4.63;;;;;;;18.43;100.00;97441.97;5135567;27;20405;-76
2023/07/04 00:05:46;;;;;;;10.27;5.15;;;;;;;18.41;100.00;97442.13;5135546;27;20025;-76
2023/07/04 00:08:12;;;;;;;7.85;5.63;;;;;;;18.38;100.00;97442.41;5134201;27;20106;-76
2023/07/04 00:10:38;;;;;;;9.77;5.40;;;;;;;18.33;100.00;97444.69;5134072;27;20106;-75
2023/07/04 00:13:03;;;;;;;7.40;5.13;;;;;;;18.31;100.00;97449.41;5135294;27;20515;-76
2023/07/04 00:15:29;;;;;;;8.07;5.18;;;;;;;18.37;100.00;97450.66;5135326;27;20027;-75
2023/07/04 00:17:54;;;;;;;7.30;4.90;;;;;;;18.37;100.00;97453.38;5135248;27;20027;-76
2023/07/04 00:20:20;;;;;;;11.23;5.55;;;;;;;18.37;100.00;97448.81;5121672;27;20404;-76
2023/07/04 00:22:45;;;;;;;12.50;5.07;;;;;;;18.41;100.00;97449.38;5130477;27;20080;-76
2023/07/04 00:25:11;;;;;;;11.15;4.70;;;;;;;18.31;100.00;97445.84;5133997;27;20026;-76
2023/07/04 00:27:36;;;;;;;11.63;5.00;;;;;;;18.34;100.00;97448.25;5133983;27;20023;-76
2023/07/04 00:30:04;;;;;;;8.60;5.40;;;;;;;18.36;100.00;97448.97;5133658;27;20099;-75
2023/07/04 00:32:30;;;;;;;12.63;6.78;;;;;;;18.42;100.00;97456.53;5135080;27;20470;-76
2023/07/04 00:34:55;;;;;;;9.73;6.13;;;;;;;18.48;100.00;97460.50;5135014;27;20026;-76
2023/07/04 00:37:21;;;;;;;11.50;5.82;;;;;;;18.46;100.00;97463.34;5133355;27;20039;-75
2023/07/04 00:39:48;;;;;;;12.38;6.38;;;;;;;18.49;100.00;97462.22;5134897;27;20072;-75
2023/07/04 00:42:14;;;;;;;11.60;6.30;;;;;;;18.37;100.00;97461.50;5133407;27;20027;-76
2023/07/04 00:44:47;;;;;;;8.75;5.40;;;;;;;18.42;100.00;97462.81;5133611;27;20542;-76
2023/07/04 00:47:21;;;;;;;8.35;6.07;;;;;;;18.38;100.00;97452.38;5133474;27;20061;-75
2023/07/04 00:49:49;;;;;;;8.30;6.07;;;;;;;18.34;100.00;97453.66;5133541;27;20034;-75
2023/07/04 00:52:25;;;;;;;9.57;5.20;;;;;;;18.30;100.00;97452.28;5133184;27;20054;-75
2023/07/04 00:54:57;;;;;;;11.15;5.35;;;;;;;18.27;100.00;97457.97;5133326;27;20138;-75
2023/07/04 00:57:31;;;;;;;12.35;5.78;;;;;;;18.10;100.00;97456.84;5133368;27;20126;-75
2023/07/04 00:59:58;;;;;;;9.98;5.50;;;;;;;18.12;100.00;97462.13;5117154;27;20110;-76
2023/07/04 01:02:28;;;;;;;8.55;4.95;;;;;;;18.11;100.00;97446.88;5115292;27;20130;-75
2023/07/04 01:04:54;;;;;;;8.77;5.68;;;;;;;18.05;100.00;97442.03;5117565;27;20027;-75
2023/07/04 01:07:32;;;;;;;6.80;5.30;;;;;;;18.02;100.00;97454.00;5131124;27;20030;-75
2023/07/04 01:10:23;;;;;;;7.18;5.25;;;;;;;18.02;100.00;97454.00;5132848;27;20027;-76
2023/07/04 01:12:49;;;;;;;8.13;5.20;;;;;;;17.98;100.00;97457.13;5133028;27;20030;-75
2023/07/04 01:15:15;;;;;;;8.98;5.32;;;;;;;17.90;100.00;97455.16;5132883;27;20019;-75
2023/07/04 01:17:42;;;;;;;10.98;4.75;;;;;;;17.91;100.00;97453.28;5132942;27;20027;-76
2023/07/04 01:20:10;;;;;;;14.13;5.82;;;;;;;17.84;100.00;97451.13;5132695;27;20023;-76
2023/07/04 01:22:38;;;;;;;12.45;5.20;;;;;;;17.83;100.00;97457.56;5132873;27;20019;-75
2023/07/04 01:25:22;;;;;;;7.72;5.13;;;;;;;17.84;100.00;97467.38;5115735;27;20019;-76
2023/07/04 01:27:49;;;;;;;11.63;5.30;;;;;;;17.79;100.00;97463.41;5134097;27;20050;-76
2023/07/04 01:30:16;;;;;;;10.02;5.18;;;;;;;17.72;100.00;97459.53;5115212;27;20402;-75
2023/07/04 01:32:42;;;;;;;8.35;4.93;;;;;;;17.78;100.00;97459.84;5132964;27;20031;-75
2023/07/04 01:35:11;;;;;;;14.10;5.10;;;;;;;17.78;100.00;97467.94;5132431;27;20019;-76
2023/07/04 01:37:36;;;;;;;7.43;5.40;;;;;;;17.81;100.00;97466.84;5132517;27;20019;-75
2023/07/04 01:40:04;;;;;;;9.75;5.38;;;;;;;17.82;100.00;97474.81;5132192;27;20015;-75
2023/07/04 01:42:33;;;;;;;8.52;4.53;;;;;;;17.68;100.00;97461.69;5115363;27;20486;-76
2023/07/04 01:45:04;;;;;;;7.97;4.80;;;;;;;17.68;100.00;97467.09;5132406;27;20042;-76
2023/07/04 01:47:31;;;;;;;9.30;5.50;;;;;;;17.64;100.00;97472.94;5114935;27;20106;-75
2023/07/04 01:49:57;;;;;;;11.13;5.07;;;;;;;17.63;100.00;97472.06;5132445;27;20056;-76
2023/07/04 01:52:23;;;;;;;9.38;4.82;;;;;;;17.65;100.00;97469.22;5131865;27;20069;-75
2023/07/04 01:54:49;;;;;;;9.02;4.90;;;;;;;17.59;100.00;97465.25;5132087;27;20031;-76
2023/07/04 01:57:14;;;;;;;18.02;6.07;;;;;;;17.56;100.00;97452.00;5132251;27;20030;-76
2023/07/04 01:59:40;;;;;;;12.27;5.75;;;;;;;17.58;100.00;97462.66;5133574;27;20019;-76
2023/07/04 02:02:05;;;;;;;13.93;5.88;;;;;;;17.58;100.00;97463.53;5133313;27;20027;-76
2023/07/04 02:04:31;;;;;;;9.77;5.35;;;;;;;17.62;100.00;97464.97;5131809;27;20030;-75
2023/07/04 02:06:56;;;;;;;11.25;5.80;;;;;;;17.61;100.00;97470.50;5133187;27;20019;-75
2023/07/04 02:09:24;;;;;;;12.13;5.25;;;;;;;17.57;100.00;97469.91;5114359;27;20043;-76
2023/07/04 02:11:50;;;;;;;10.77;5.75;;;;;;;17.53;100.00;97459.50;5131977;27;20091;-75
2023/07/04 02:14:16;;;;;;;10.15;5.50;;;;;;;17.57;100.00;97469.91;5131855;27;20080;-75
2023/07/04 02:16:42;;;;;;;8.27;5.55;;;;;;;17.48;100.00;97459.91;5131553;27;20023;-75
2023/07/04 02:19:08;;;;;;;7.47;5.15;;;;;;;17.55;100.00;97468.34;5130881;27;20031;-75
2023/07/04 02:21:34;;;;;;;9.70;5.47;;;;;;;17.53;100.00;97465.78;5132550;27;20027;-76
2023/07/04 02:24:03;;;;;;;9.77;5.63;;;;;;;17.52;100.00;97469.47;5131664;27;20015;-75
2023/07/04 02:26:32;;;;;;;15.00;5.47;;;;;;;17.45;100.00;97471.00;5132395;27;20031;-75
2023/07/04 02:28:57;;;;;;;15.57;5.35;;;;;;;17.35;100.00;97470.13;5132747;27;20536;-75
2023/07/04 02:31:23;;;;;;;16.27;5.65;;;;;;;17.37;100.00;97470.84;5131096;27;20031;-76
2023/07/04 02:33:50;;;;;;;14.13;5.47;;;;;;;17.32;100.00;97465.00;5131451;27;20022;-76
2023/07/04 02:36:15;;;;;;;12.05;5.30;;;;;;;17.30;100.00;97459.75;5131372;27;20027;-75
2023/07/04 02:38:41;;;;;;;13.50;5.70;;;;;;;17.30;100.00;97467.84;5113896;27;20038;-75
2023/07/04 02:41:07;;;;;;;19.20;5.88;;;;;;;17.29;100.00;97468.84;5125286;27;20020;-75
2023/07/04 02:43:34;;;;;;;26.67;6.15;;;;;;;17.20;100.00;97463.41;5129858;27;20027;-75
2023/07/04 02:46:00;;;;;;;16.80;6.20;;;;;;;17.20;100.00;97461.56;5131303;27;20019;-75
2023/07/04 02:48:26;;;;;;;14.20;5.63;;;;;;;17.29;100.00;97462.56;5131117;27;20458;-75
2023/07/04 02:50:52;;;;;;;10.40;5.38;;;;;;;17.26;100.00;97458.28;5113760;27;20027;-76
2023/07/04 02:53:21;;;;;;;22.35;6.65;;;;;;;17.38;100.00;97467.13;5106900;28;20037;-76
2023/07/04 02:55:51;;;;;;;16.27;6.00;;;;;;;17.42;100.00;97468.59;5130042;27;20114;-75
2023/07/04 02:58:16;;;;;;;15.13;6.63;;;;;;;17.43;100.00;97458.63;5124234;27;20416;-76
2023/07/04 03:00:42;;;;;;;16.23;5.70;;;;;;;17.46;100.00;97456.50;5112180;27;20032;-76
2023/07/04 03:03:08;;;;;;;13.10;5.47;;;;;;;17.50;100.00;97462.50;5130939;27;20031;-75
2023/07/04 03:05:35;;;;;;;14.82;5.80;;;;;;;17.49;100.00;97471.59;5131777;27;20418;-75
2023/07/04 03:08:00;;;;;;;9.38;6.07;;;;;;;17.47;100.00;97463.63;5113638;27;20027;-76
2023/07/04 03:10:26;;;;;;;11.45;5.75;;;;;;;17.53;100.00;97465.78;5113635;27;20039;-77
2023/07/04 03:12:51;;;;;;;17.67;6.68;;;;;;;17.56;100.00;97453.84;5131884;27;20027;-78
2023/07/04 03:15:17;;;;;;;17.55;6.60;;;;;;;17.58;100.00;97458.13;5113749;27;20247;-77
2023/07/04 03:17:43;;;;;;;11.35;6.82;;;;;;;17.60;100.00;97458.81;5113329;27;20535;-78
2023/07/04 03:20:10;;;;;;;16.25;7.05;;;;;;;17.59;100.00;97457.13;5117106;27;20053;-78
2023/07/04 03:22:39;;;;;;;11.77;7.03;;;;;;;17.65;100.00;97467.38;5110123;28;20420;-77
2023/07/04 03:25:05;;;;;;;11.68;6.47;;;;;;;17.61;100.00;97460.53;5123202;27;20023;-76
2023/07/04 03:27:31;;;;;;;11.38;6.10;;;;;;;17.58;100.00;97458.13;5130792;27;20027;-76
2023/07/04 03:29:56;;;;;;;8.57;6.00;;;;;;;17.64;100.00;97460.25;5130265;27;20023;-75
2023/07/04 03:32:22;;;;;;;12.18;7.32;;;;;;;17.60;100.00;97460.66;5130538;27;20054;-76
2023/07/04 03:34:47;;;;;;;9.30;5.82;;;;;;;17.61;100.00;97467.78;5130084;27;20026;-76
2023/07/04 03:37:13;;;;;;;13.90;6.07;;;;;;;17.66;100.00;97470.94;5131134;27;20448;-76
2023/07/04 03:39:39;;;;;;;11.55;5.70;;;;;;;17.68;100.00;97460.84;5122896;27;20028;-81
2023/07/04 03:42:05;;;;;;;14.25;5.82;;;;;;;17.70;100.00;97462.41;5118757;27;20478;-82
2023/07/04 03:44:30;;;;;;;8.50;5.70;;;;;;;17.63;100.00;97458.53;5092810;28;20032;-84
2023/07/04 03:46:56;;;;;;;11.15;6.50;;;;;;;17.70;100.00;97459.69;5092696;28;20509;-74
2023/07/04 03:49:21;;;;;;;56.58;19.25;;;;;;;17.75;100.00;97468.22;5107162;28;20566;-81
2023/07/04 03:51:47;;;;;;;21.83;8.20;;;;;;;17.83;100.00;97457.56;5111899;28;20039;-75
2023/07/04 03:54:12;;;;;;;17.88;8.77;;;;;;;17.85;100.00;97458.28;5118102;28;20390;-74
2023/07/04 03:56:38;;;;;;;15.93;6.00;;;;;;;17.89;100.00;97461.56;5110939;28;20039;-75
2023/07/04 03:59:03;;;;;;;20.05;6.32;;;;;;;17.82;100.00;97469.38;5129581;28;20054;-75
2023/07/04 04:01:29;;;;;;;19.52;6.97;;;;;;;17.81;100.00;97464.13;5130738;27;20031;-75
2023/07/04 04:03:54;;;;;;;15.57;6.65;;;;;;;17.81;100.00;97462.25;5111235;28;20046;-76
2023/07/04 04:06:21;;;;;;;13.07;6.45;;;;;;;17.81;100.00;97472.25;5110892;28;20076;-76
2023/07/04 04:08:46;;;;;;;14.77;7.28;;;;;;;17.90;100.00;97468.69;5126939;27;20034;-76
2023/07/04 04:11:12;;;;;;;23.13;8.07;;;;;;;17.99;100.00;97466.97;5130288;27;20031;-76
2023/07/04 04:13:37;;;;;;;17.15;7.70;;;;;;;18.08;100.00;97477.81;5131489;27;20027;-76
2023/07/04 04:16:03;;;;;;;29.77;9.02;;;;;;;18.19;100.00;97479.50;5128608;27;20035;-76
2023/07/04 04:18:28;;;;;;;11.00;5.90;;;;;;;18.25;100.00;97476.22;5124129;28;20035;-76
2023/07/04 04:20:54;;;;;;;16.33;6.10;;;;;;;18.33;100.00;97477.19;5130249;28;20038;-76
2023/07/04 04:23:21;;;;;;;11.65;6.22;;;;;;;18.38;100.00;97472.22;5130161;28;20023;-76
2023/07/04 04:25:47;;;;;;;16.80;7.10;;;;;;;18.53;100.00;97474.47;5129898;27;20023;-76
2023/07/04 04:28:13;;;;;;;17.40;6.70;;;;;;;18.56;100.00;97468.78;5131494;27;20087;-76
2023/07/04 04:30:39;;;;;;;17.60;7.30;;;;;;;18.68;100.00;97468.47;5112922;28;20031;-76
2023/07/04 04:33:05;;;;;;;14.18;6.95;;;;;;;18.77;100.00;97472.13;5129906;27;20038;-76
2023/07/04 04:35:31;;;;;;;20.63;8.50;;;;;;;18.84;100.00;97479.53;5131021;27;20371;-76
2023/07/04 04:37:57;;;;;;;23.08;8.63;;;;;;;18.87;100.00;97484.66;5112677;28;20510;-76
2023/07/04 04:40:22;;;;;;;16.02;7.10;;;;;;;18.95;100.00;97476.63;5130886;27;20077;-77
2023/07/04 04:42:55;;;;;;;12.40;6.32;;;;;;;19.05;100.00;97481.16;5118741;27;20042;-76
2023/07/04 04:45:21;;;;;;;15.65;6.30;;;;;;;19.07;100.00;97476.47;5097956;27;20036;-76
2023/07/04 04:47:52;;;;;;;11.57;5.70;;;;;;;18.95;100.00;97476.63;5116398;27;20125;-77
2023/07/04 04:50:22;;;;;;;9.50;6.03;;;;;;;19.10;100.00;97470.75;5117007;27;20037;-77
2023/07/04 04:52:48;;;;;;;21.52;11.70;;;;;;;19.34;100.00;97481.91;5133588;27;20027;-77
2023/07/04 04:55:15;;;;;;;14.23;8.23;;;;;;;19.77;100.00;97473.09;5133124;27;20023;-77
2023/07/04 04:57:41;;;;;;;11.48;6.10;;;;;;;20.93;100.00;97460.13;5133598;27;20042;-77
2023/07/04 05:00:07;;;;;;;13.18;6.40;;;;;;;22.07;100.00;97444.06;5115869;27;20088;-77
2023/07/04 05:02:33;;;;;;;16.58;7.78;;;;;;;23.01;100.00;97447.06;5134301;27;20027;-77
2023/07/04 05:04:59;;;;;;;14.32;7.43;;;;;;;24.04;100.00;97448.66;5133912;27;20075;-77
2023/07/04 05:07:25;;;;;;;23.25;7.28;;;;;;;25.31;100.00;97443.25;5121068;27;20107;-77
2023/07/04 05:09:58;;;;;;;28.30;7.57;;;;;;;26.48;100.00;97420.16;5113984;28;20063;-77
2023/07/04 05:12:24;;;;;;;23.33;12.43;;;;;;;27.26;100.00;97423.50;5118000;27;20100;-77
2023/07/04 05:14:49;;;;;;;14.35;6.80;;;;;;;27.12;100.00;97423.66;5128285;27;20027;-78
2023/07/04 05:17:15;;;;;;;25.77;11.18;;;;;;;27.73;100.00;97422.72;5133156;27;20027;-77
2023/07/04 05:19:40;;;;;;;11.82;6.30;;;;;;;27.66;100.00;97421.00;5132717;27;20031;-77
2023/07/04 05:22:06;;;;;;;12.82;6.82;;;;;;;26.60;100.00;97437.78;5132746;27;20042;-76
2023/07/04 05:24:32;;;;;;;18.85;7.85;;;;;;;27.25;100.00;97421.00;5132695;27;20058;-76
2023/07/04 05:26:57;;;;;;;7.75;5.60;;;;;;;27.30;100.00;97427.56;5134098;27;20035;-76
2023/07/04 05:29:23;;;;;;;21.25;10.65;;;;;;;27.80;100.00;97431.00;5129622;27;20059;-77
2023/07/04 05:31:48;;;;;;;17.73;6.95;;;;;;;28.71;100.00;97410.25;5132742;27;20124;-76
2023/07/04 05:34:14;;;;;;;13.20;6.97;;;;;;;28.96;96.22;97405.78;5133718;27;20035;-77
2023/07/04 05:36:39;;;;;;;20.80;6.25;;;;;;;29.74;93.57;97413.03;5115257;27;20503;-78
2023/07/04 05:39:08;;;;;;;14.55;7.53;;;;;;;30.49;86.61;97406.69;5115304;27;20419;-78
2023/07/04 05:41:35;;;;;;;8.93;6.05;;;;;;;28.91;93.06;97422.13;5132611;27;20069;-77
2023/07/04 05:44:03;;;;;;;16.77;8.73;;;;;;;27.61;100.00;97429.88;5124417;27;20141;-77
2023/07/04 05:46:29;;;;;;;13.07;7.88;;;;;;;27.35;100.00;97427.78;5094891;28;20027;-78
2023/07/04 05:48:55;;;;;;;11.32;5.72;;;;;;;28.32;100.00;97424.81;5110466;27;20042;-77
2023/07/04 05:51:22;;;;;;;12.07;7.65;;;;;;;28.50;100.00;97420.41;5115060;27;20042;-77
2023/07/04 05:53:49;;;;;;;18.63;6.78;;;;;;;29.76;93.17;97407.28;5111856;28;20027;-76
2023/07/04 05:56:17;;;;;;;50.30;7.40;;;;;;;30.89;84.90;97412.72;5129792;27;20019;-77
2023/07/04 05:58:45;;;;;;;15.82;7.50;;;;;;;31.80;75.76;97404.56;5129675;27;20023;-77
2023/07/04 06:01:13;;;;;;;36.53;20.33;;;;;;;31.66;72.11;97398.34;5128704;27;20027;-76
2023/07/04 06:03:39;;;;;;;12.00;6.47;;;;;;;31.25;74.26;97406.47;5113079;27;20035;-76
2023/07/04 06:06:06;;;;;;;10.80;5.43;;;;;;;31.93;70.21;97409.09;5127772;27;20026;-75
2023/07/04 06:08:33;;;;;;;10.55;5.78;;;;;;;31.75;70.89;97411.88;5131759;27;20022;-77
2023/07/04 06:11:00;;;;;;;18.65;8.88;;;;;;;32.50;65.61;97399.31;5114611;27;20038;-76
2023/07/04 06:13:26;;;;;;;13.02;7.07;;;;;;;32.59;64.06;97390.47;5114636;27;20394;-77
2023/07/04 06:15:51;;;;;;;28.63;7.85;;;;;;;32.24;66.11;97392.25;5094568;28;20024;-76
2023/07/04 06:18:17;;;;;;;16.13;6.75;;;;;;;32.57;65.16;97394.56;5129162;27;20059;-77
2023/07/04 06:20:43;;;;;;;21.98;7.80;;;;;;;33.10;60.57;97392.59;5131532;27;20557;-76
2023/07/04 06:23:08;;;;;;;11.18;5.07;;;;;;;32.01;66.21;97400.44;5132891;27;20022;-77
2023/07/04 06:25:34;;;;;;;63.50;43.90;;;;;;;32.30;64.86;97396.03;5131336;27;20015;-76
2023/07/04 06:28:00;;;;;;;12.73;4.60;;;;;;;32.69;61.52;97390.75;5132734;27;20019;-77
2023/07/04 06:30:29;;;;;;;6.93;4.50;;;;;;;33.08;59.35;97380.91;5121104;27;20051;-76
2023/07/04 06:32:56;;;;;;;9.68;4.93;;;;;;;33.12;59.67;97373.81;5112018;28;20106;-77
2023/07/04 06:35:21;;;;;;;10.65;5.28;;;;;;;32.14;65.44;97392.00;5128720;27;20026;-76
2023/07/04 06:37:47;;;;;;;10.07;5.05;;;;;;;31.68;68.92;97381.53;5131071;27;20031;-76
2023/07/04 06:40:12;;;;;;;15.55;6.05;;;;;;;33.24;59.36;97377.41;5132626;27;20126;-78
2023/07/04 06:42:38;;;;;;;24.48;14.52;;;;;;;34.13;53.21;97361.28;5132501;27;20023;-76
2023/07/04 06:45:04;;;;;;;16.63;5.55;;;;;;;34.89;50.67;97371.00;5132586;27;20058;-78
2023/07/04 06:47:29;;;;;;;17.58;11.95;;;;;;;34.88;48.49;97356.25;5114028;27;20027;-78
2023/07/04 06:49:55;;;;;;;7.00;5.13;;;;;;;36.02;46.38;97367.63;5131111;27;20030;-77
2023/07/04 06:52:21;;;;;;;16.63;5.53;;;;;;;36.53;45.54;97357.91;5113926;27;20031;-78
2023/07/04 06:54:50;;;;;;;7.03;3.90;;;;;;;34.91;46.30;97352.97;5130884;27;20022;-77
2023/07/04 06:57:16;;;;;;;12.48;5.07;;;;;;;35.95;46.12;97364.19;5113853;27;20026;-77
2023/07/04 06:59:44;;;;;;;7.75;4.68;;;;;;;34.35;48.26;97358.63;5131973;27;20076;-77
2023/07/04 07:02:11;;;;;;;11.40;4.50;;;;;;;34.18;49.90;97353.03;5131014;27;20023;-77
2023/07/04 07:04:36;;;;;;;56.88;9.10;;;;;;;35.18;51.20;97358.69;5111382;27;20470;-77
2023/07/04 07:07:03;;;;;;;19.15;5.20;;;;;;;35.56;50.19;97357.84;5130013;27;20110;-76
2023/07/04 07:09:30;;;;;;;36.72;8.77;;;;;;;36.02;47.97;97357.34;5115404;27;20040;-76
2023/07/04 07:11:56;;;;;;;11.30;5.13;;;;;;;36.49;47.20;97360.34;5128930;27;20023;-76
2023/07/04 07:14:21;;;;;;;6.97;4.93;;;;;;;36.41;47.09;97361.69;5113473;27;20023;-76
2023/07/04 07:16:47;;;;;;;13.48;4.63;;;;;;;35.92;47.11;97359.16;5131655;27;20031;-76
2023/07/04 07:19:12;;;;;;;14.02;4.90;;;;;;;34.30;52.24;97367.75;5130714;27;20030;-76
2023/07/04 07:21:37;;;;;;;9.13;4.80;;;;;;;35.82;49.06;97371.00;5123111;27;20117;-76
2023/07/04 07:24:03;;;;;;;12.35;5.57;;;;;;;36.81;46.91;97355.66;5110833;28;20019;-76
2023/07/04 07:26:30;;;;;;;96.90;10.43;;;;;;;37.11;45.20;97360.66;5127335;27;20427;-76
2023/07/04 07:28:56;;;;;;;10.77;4.70;;;;;;;37.48;43.43;97349.47;5130417;27;20027;-76
2023/07/04 07:31:25;;;;;;;10.65;4.95;;;;;;;37.94;41.98;97358.94;5131832;27;20027;-76
2023/07/04 07:33:51;;;;;;;5.68;4.45;;;;;;;38.54;40.78;97349.03;5121201;27;20028;-75
2023/07/04 07:36:20;;;;;;;8.63;4.25;;;;;;;36.71;42.60;97346.34;5109927;28;20074;-76
2023/07/04 07:38:46;;;;;;;12.40;4.30;;;;;;;37.03;42.08;97332.41;5109845;28;20031;-77
2023/07/04 07:41:12;;;;;;;8.50;4.30;;;;;;;36.42;42.36;97343.84;5111065;28;20173;-76
2023/07/04 07:43:39;;;;;;;5.40;3.95;;;;;;;36.66;43.29;97349.13;5127713;27;20521;-76
2023/07/04 07:46:09;;;;;;;5.82;3.83;;;;;;;37.38;42.86;97352.16;5130115;27;20113;-76
2023/07/04 07:48:35;;;;;;;10.07;4.68;;;;;;;37.91;42.03;97340.75;5113045;28;20179;-76
2023/07/04 07:51:01;;;;;;;12.65;9.07;;;;;;;39.64;38.99;97358.50;5112794;28;20447;-77
2023/07/04 07:53:26;;;;;;;10.52;5.70;;;;;;;39.55;38.92;97359.09;5130328;28;20611;-77
2023/07/04 07:55:52;;;;;;;9.57;4.57;;;;;;;38.58;39.27;97345.41;5131315;27;20069;-77
2023/07/04 07:58:17;;;;;;;9.57;4.10;;;;;;;38.48;40.27;97353.78;5130184;28;20019;-76
2023/07/04 08:00:43;;;;;;;11.55;4.60;;;;;;;39.62;38.17;97346.75;5112869;28;20174;-77
2023/07/04 08:03:08;;;;;;;9.90;4.82;;;;;;;39.83;38.00;97352.00;5130100;28;20402;-77
2023/07/04 08:05:42;;;;;;;6.60;4.88;;;;;;;40.27;37.38;97349.28;5127288;27;20012;-77
2023/07/04 08:08:08;;;;;;;6.15;4.22;;;;;;;38.86;38.25;97344.88;5111317;28;20490;-76
2023/07/04 08:10:41;;;;;;;7.60;4.15;;;;;;;39.03;38.62;97348.25;5130505;28;20489;-77
2023/07/04 08:13:08;;;;;;;6.10;4.05;;;;;;;39.81;36.87;97347.81;5131917;27;20444;-77
2023/07/04 08:15:33;;;;;;;5.93;4.10;;;;;;;40.02;36.49;97343.78;5113509;27;20102;-77
2023/07/04 08:18:04;;;;;;;9.73;5.00;;;;;;;40.28;37.07;97344.50;5133130;27;20152;-77
2023/07/04 08:20:29;;;;;;;13.70;4.80;;;;;;;40.48;36.16;97341.59;5116639;27;20066;-77
2023/07/04 08:22:55;;;;;;;57.08;7.20;;;;;;;40.76;36.32;97338.03;5133917;27;20555;-78
2023/07/04 08:25:20;;;;;;;8.35;4.05;;;;;;;41.68;35.09;97338.84;5133694;27;20023;-77
2023/07/04 08:27:46;;;;;;;11.32;4.68;;;;;;;41.24;34.70;97321.31;5131450;27;20109;-78
2023/07/04 08:30:11;;;;;;;8.48;4.57;;;;;;;40.38;35.82;97331.28;5113549;27;20133;-78
2023/07/04 08:32:37;;;;;;;5.00;4.50;;;;;;;40.78;35.97;97330.16;5116409;27;20073;-78
2023/07/04 08:35:03;;;;;;;5.60;4.45;;;;;;;40.28;36.46;97328.53;5133623;27;20027;-78
2023/07/04 08:37:28;;;;;;;6.85;5.30;;;;;;;40.91;37.00;97323.88;5115301;27;20115;-77
2023/07/04 08:39:55;;;;;;;6.72;5.25;;;;;;;41.02;37.23;97325.47;5114476;28;20032;-77
2023/07/04 08:42:21;;;;;;;6.47;4.53;;;;;;;41.18;37.44;97328.13;5114184;27;20410;-77
2023/07/04 08:44:49;;;;;;;9.80;5.00;;;;;;;41.67;35.71;97323.09;5116423;27;20521;-77
2023/07/04 08:47:17;;;;;;;6.00;4.57;;;;;;;40.24;36.30;97323.81;5133233;27;20027;-77
2023/07/04 08:49:50;;;;;;;7.68;4.32;;;;;;;39.35;38.76;97335.88;5116164;27;20504;-78
2023/07/04 08:52:23;;;;;;;5.55;4.72;;;;;;;40.03;38.72;97335.09;5133312;27;20102;-77
2023/07/04 08:54:53;;;;;;;6.57;4.93;;;;;;;40.42;38.64;97326.75;5133265;27;20011;-79
2023/07/04 08:57:38;;;;;;;10.30;4.88;;;;;;;40.88;38.61;97321.66;5124390;27;20044;-78
2023/07/04 09:00:13;;;;;;;8.10;4.78;;;;;;;41.24;36.72;97307.28;5122776;27;20387;-77
2023/07/04 09:02:51;;;;;;;6.55;4.55;;;;;;;41.59;36.22;97306.91;5124164;27;20023;-77
2023/07/04 09:05:29;;;;;;;9.00;5.97;;;;;;;41.65;36.57;97320.56;5133347;27;20033;-78
2023/07/04 09:08:15;;;;;;;8.35;5.15;;;;;;;40.14;37.95;97319.09;5134545;27;20027;-77
2023/07/04 09:10:49;;;;;;;7.07;5.32;;;;;;;41.54;36.73;97310.59;5121236;27;20015;-78
2023/07/04 09:13:34;;;;;;;11.43;5.63;;;;;;;41.96;35.24;97307.00;5129094;27;20095;-79
2023/07/04 09:16:02;;;;;;;11.27;7.85;;;;;;;43.27;32.69;97306.09;5131461;27;20106;-79
2023/07/04 09:18:35;;;;;;;10.68;5.53;;;;;;;42.86;33.25;97306.78;5134202;27;20050;-77
2023/07/04 09:21:12;;;;;;;6.15;5.05;;;;;;;42.36;34.30;97301.97;5120148;27;20019;-78
2023/07/04 09:23:38;;;;;;;12.13;5.80;;;;;;;43.24;34.03;97315.16;5113294;28;20023;-78
2023/07/04 09:26:04;;;;;;;6.10;4.97;;;;;;;43.56;32.95;97298.22;5113435;28;20027;-78
2023/07/04 09:28:31;;;;;;;11.02;5.95;;;;;;;43.19;33.95;97302.81;5120202;27;20474;-78
2023/07/04 09:30:58;;;;;;;9.85;5.40;;;;;;;42.87;33.92;97297.22;5132558;27;20023;-78
2023/07/04 09:33:26;;;;;;;15.73;5.75;;;;;;;42.97;33.62;97291.44;5132394;27;20095;-78
2023/07/04 09:35:52;;;;;;;9.88;5.82;;;;;;;43.31;34.50;97295.88;5132317;27;20503;-78
2023/07/04 09:38:18;;;;;;;20.13;6.38;;;;;;;44.29;33.25;97303.72;5132674;27;20123;-78
2023/07/04 09:40:49;;;;;;;11.40;6.88;;;;;;;45.24;30.82;97289.19;5133688;27;20046;-78
2023/07/04 09:43:33;;;;;;;7.85;5.13;;;;;;;45.07;31.54;97289.06;5125734;27;20024;-78
2023/07/04 09:46:22;;;;;;;8.43;5.10;;;;;;;45.42;29.52;97275.16;5112689;28;20035;-78
2023/07/04 09:48:48;;;;;;;12.13;5.72;;;;;;;45.72;29.61;97275.13;5131610;27;20019;-78
2023/07/04 09:51:26;;;;;;;8.40;5.95;;;;;;;45.50;29.46;97275.19;5133692;27;20525;-78
2023/07/04 09:54:12;;;;;;;5.93;5.32;;;;;;;45.76;29.53;97276.16;5123752;27;20447;-78
2023/07/04 09:56:38;;;;;;;7.28;4.88;;;;;;;45.41;29.69;97274.31;5132043;27;20490;-78
2023/07/04 09:59:13;;;;;;;8.63;5.60;;;;;;;44.05;30.83;97274.91;5132152;27;20030;-77
2023/07/04 10:01:43;;;;;;;7.82;5.25;;;;;;;44.74;30.20;97282.88;5131874;27;20084;-78
2023/07/04 10:04:10;;;;;;;8.85;5.55;;;;;;;44.68;30.07;97274.84;5131939;27;20138;-78
2023/07/04 10:06:38;;;;;;;6.90;5.85;;;;;;;44.32;30.81;97269.22;5108742;28;20482;-77
2023/07/04 10:09:22;;;;;;;6.25;5.45;;;;;;;44.97;29.96;97251.81;5127258;27;20056;-78
2023/07/04 10:11:50;;;;;;;7.68;5.60;;;;;;;45.42;29.29;97247.72;5131762;27;20046;-78
2023/07/04 10:14:17;;;;;;;6.63;5.88;;;;;;;45.60;29.40;97245.78;5131518;27;20015;-77
2023/07/04 10:16:47;;;;;;;10.98;6.65;;;;;;;44.64;29.52;97237.13;5131587;27;20031;-78
2023/07/04 10:19:16;;;;;;;9.02;7.70;;;;;;;44.67;29.74;97240.09;5131417;27;20066;-78
2023/07/04 10:21:43;;;;;;;7.93;6.10;;;;;;;46.31;27.80;97233.97;5131423;27;20026;-78
2023/07/04 10:24:10;;;;;;;16.25;6.22;;;;;;;45.82;28.67;97237.22;5131412;27;20075;-78
2023/07/04 10:26:36;;;;;;;7.60;5.95;;;;;;;45.89;28.26;97237.59;5130928;27;20478;-78
2023/07/04 10:29:03;;;;;;;12.02;6.40;;;;;;;46.54;28.09;97237.50;5131575;27;20030;-78
2023/07/04 10:31:29;;;;;;;7.32;6.43;;;;;;;46.21;27.22;97236.31;5113946;27;20027;-78
2023/07/04 10:34:07;;;;;;;6.90;6.20;;;;;;;46.09;27.50;97227.63;5131008;27;20466;-77
2023/07/04 10:36:35;;;;;;;10.45;6.05;;;;;;;46.88;27.21;97239.47;5131342;27;20477;-78
2023/07/04 10:39:05;;;;;;;8.60;5.75;;;;;;;46.24;27.52;97230.81;5130487;27;20027;-78
2023/07/04 10:41:50;;;;;;;6.47;5.78;;;;;;;45.27;28.31;97217.03;5113931;27;20027;-78
2023/07/04 10:44:26;;;;;;;10.48;5.90;;;;;;;44.15;29.23;97230.38;5130558;27;20498;-77
2023/07/04 10:46:56;;;;;;;8.35;5.30;;;;;;;45.90;28.13;97219.47;5113862;27;20023;-78
2023/07/04 10:49:26;;;;;;;6.43;5.50;;;;;;;46.00;27.34;97218.28;5130822;27;20035;-78
2023/07/04 10:52:15;;;;;;;6.97;5.93;;;;;;;45.99;27.37;97222.28;5130876;27;20087;-78
2023/07/04 10:54:41;;;;;;;13.93;6.13;;;;;;;46.21;26.81;97211.66;5131412;27;20104;-78
2023/07/04 10:57:19;;;;;;;7.03;5.45;;;;;;;47.03;26.06;97213.44;5132186;27;20261;-78
2023/07/04 10:59:45;;;;;;;9.30;5.20;;;;;;;47.26;25.79;97202.69;5132112;27;20066;-78
2023/07/04 11:02:25;;;;;;;8.88;5.75;;;;;;;45.97;26.84;97208.47;5130803;27;20446;-78
2023/07/04 11:04:57;;;;;;;9.50;5.53;;;;;;;46.60;26.32;97205.00;5131957;27;20478;-78
2023/07/04 11:07:24;;;;;;;7.63;5.20;;;;;;;46.89;26.00;97206.31;5130495;27;20462;-77
2023/07/04 11:09:55;;;;;;;5.85;5.25;;;;;;;46.52;25.62;97193.72;5096488;27;20035;-77
2023/07/04 11:12:23;;;;;;;14.82;9.52;;;;;;;46.41;26.62;97195.16;5130640;27;20019;-77
2023/07/04 11:14:49;;;;;;;8.98;5.65;;;;;;;46.50;26.42;97184.69;5130489;27;20023;-78
2023/07/04 11:17:20;;;;;;;6.13;5.43;;;;;;;46.54;26.23;97182.88;5131979;27;20107;-78
2023/07/04 11:20:12;;;;;;;13.38;5.43;;;;;;;46.47;25.80;97171.22;5113486;27;20045;-78
2023/07/04 11:22:46;;;;;;;6.78;5.45;;;;;;;44.60;27.72;97172.00;5130578;27;20039;-77
2023/07/04 11:25:32;;;;;;;9.13;5.45;;;;;;;46.18;26.47;97169.03;5130387;27;20030;-78
2023/07/04 11:28:26;;;;;;;10.20;5.45;;;;;;;46.42;26.52;97177.06;5113231;27;20027;-77